Time;durP1;ratioP1;P1;durP2;ratioP2;P2;SDS_P1;SDS_P2;PMS_P1;PMS_P2;Temp;Humidity;BMP_temperature;BMP_pressure;BME280_temperature;BME280_humidity;BME280_pressure;Samples;Min_cycle;Max_cycle;Signal;HPM_P1;HPM_P2
2022/12/26 00:02:12;;;;;;;15.50;11.02;;;29.00;99.90;;;;;;4992521;28;20673;-77
2022/12/26 00:04:43;;;;;;;15.27;10.60;;;29.10;99.90;;;;;;4995057;28;20246;-79
2022/12/26 00:07:14;;;;;;;13.25;10.38;;;29.20;99.90;;;;;;4994203;28;20290;-79
2022/12/26 00:09:47;;;;;;;14.75;10.32;;;29.20;99.90;;;;;;4995562;28;20316;-80
2022/12/26 00:12:17;;;;;;;14.65;10.00;;;29.30;99.90;;;;;;4995183;28;20198;-78
2022/12/26 00:14:48;;;;;;;14.05;9.93;;;29.50;99.90;;;;;;4992896;28;20198;-78
2022/12/26 00:17:19;;;;;;;13.23;9.77;;;29.60;99.90;;;;;;4993086;28;20302;-82
2022/12/26 00:19:50;;;;;;;12.82;9.60;;;29.70;99.90;;;;;;4994629;28;20195;-78
2022/12/26 00:22:21;;;;;;;12.73;9.40;;;29.70;99.90;;;;;;4985246;28;20656;-78
2022/12/26 00:24:53;;;;;;;15.52;9.50;;;29.70;99.90;;;;;;4993224;28;20235;-77
2022/12/26 00:27:24;;;;;;;12.25;8.45;;;29.70;99.90;;;;;;4991244;28;20278;-77
2022/12/26 00:29:55;;;;;;;12.30;8.52;;;29.70;99.90;;;;;;4994863;28;20279;-77
2022/12/26 00:32:26;;;;;;;10.80;7.82;;;29.70;99.90;;;;;;4991851;28;20235;-82
2022/12/26 00:34:57;;;;;;;9.93;7.65;;;29.70;99.90;;;;;;4975216;28;20268;-77
2022/12/26 00:37:27;;;;;;;9.57;6.60;;;29.70;99.90;;;;;;4985426;28;20215;-80
2022/12/26 00:40:00;;;;;;;9.50;7.35;;;29.60;99.90;;;;;;4990101;28;20199;-82
2022/12/26 00:42:31;;;;;;;10.90;6.03;;;29.50;99.90;;;;;;4993514;28;20206;-79
2022/12/26 00:45:01;;;;;;;8.52;5.35;;;29.40;99.90;;;;;;4993540;28;20574;-78
2022/12/26 00:47:32;;;;;;;9.63;5.15;;;29.50;99.90;;;;;;4986313;28;20237;-78
2022/12/26 00:50:03;;;;;;;7.68;4.55;;;29.60;99.90;;;;;;4993698;28;20738;-78
2022/12/26 00:52:34;;;;;;;8.32;4.07;;;29.50;99.90;;;;;;4994054;28;20188;-83
2022/12/26 00:55:07;;;;;;;9.32;3.60;;;29.60;99.90;;;;;;4978982;28;20267;-79
2022/12/26 00:57:38;;;;;;;7.85;3.60;;;29.80;99.90;;;;;;4986461;28;20310;-81
2022/12/26 01:00:12;;;;;;;6.68;2.80;;;29.70;99.90;;;;;;4989782;28;20279;-81
2022/12/26 01:02:43;;;;;;;6.50;3.10;;;29.70;99.90;;;;;;4994216;28;20195;-81
2022/12/26 01:05:14;;;;;;;4.43;2.80;;;29.60;99.90;;;;;;4993971;28;20196;-83
2022/12/26 01:07:45;;;;;;;4.43;2.50;;;29.70;99.90;;;;;;4990553;28;20627;-80
2022/12/26 01:10:18;;;;;;;6.53;2.85;;;29.50;99.90;;;;;;4993823;28;20195;-79
2022/12/26 01:12:49;;;;;;;3.30;2.25;;;29.50;99.90;;;;;;4987433;28;20203;-80
2022/12/26 01:15:20;;;;;;;3.13;1.75;;;29.50;99.90;;;;;;4990664;28;20673;-80
2022/12/26 01:17:51;;;;;;;3.58;1.77;;;29.40;99.90;;;;;;4986936;28;20219;-82
2022/12/26 01:20:22;;;;;;;3.88;1.60;;;29.40;99.90;;;;;;4991107;28;20203;-82
2022/12/26 01:22:52;;;;;;;2.92;1.88;;;29.20;99.90;;;;;;4989735;28;20660;-81
2022/12/26 01:25:25;;;;;;;2.97;1.60;;;29.40;99.90;;;;;;4988899;28;20226;-79
2022/12/26 01:27:56;;;;;;;2.67;1.33;;;29.50;99.90;;;;;;4992130;28;20282;-81
2022/12/26 01:30:29;;;;;;;5.03;1.48;;;29.70;99.90;;;;;;4991192;28;20286;-78
2022/12/26 01:33:00;;;;;;;3.25;1.48;;;29.70;99.90;;;;;;4987974;28;20202;-78
2022/12/26 01:35:30;;;;;;;2.78;1.33;;;29.80;99.90;;;;;;4992334;28;20199;-78
2022/12/26 01:38:01;;;;;;;4.53;1.42;;;30.20;99.90;;;;;;4992777;28;20216;-80
2022/12/26 01:40:34;;;;;;;3.35;1.48;;;30.20;99.90;;;;;;4991547;28;20283;-80
2022/12/26 01:43:13;;;;;;;3.20;1.20;;;30.10;99.90;;;;;;4992572;28;20199;-80
2022/12/26 01:45:46;;;;;;;2.20;1.10;;;29.90;99.90;;;;;;4992951;28;20282;-79
2022/12/26 01:48:21;;;;;;;4.88;1.27;;;29.70;99.90;;;;;;4985043;28;20239;-78
2022/12/26 01:50:57;;;;;;;2.63;1.00;;;29.90;99.90;;;;;;4992439;28;20281;-78
2022/12/26 01:53:30;;;;;;;4.68;1.30;;;29.60;99.90;;;;;;4992635;28;20205;-78
2022/12/26 01:56:08;;;;;;;3.35;1.10;;;29.70;99.90;;;;;;4992299;28;20314;-81
2022/12/26 01:58:45;;;;;;;1.65;1.10;;;29.60;99.90;;;;;;4989302;28;20313;-79
2022/12/26 02:01:16;;;;;;;2.70;0.95;;;29.50;99.90;;;;;;4992582;28;20195;-79
2022/12/26 02:06:36;;;;;;;3.67;1.00;;;29.40;99.90;;;;;;4990863;28;20285;-82
2022/12/26 02:09:07;;;;;;;1.73;1.10;;;29.70;99.90;;;;;;4986170;28;20226;-81
2022/12/26 02:11:44;;;;;;;2.70;1.00;;;29.90;99.90;;;;;;4988785;28;20310;-79
2022/12/26 02:14:15;;;;;;;2.78;1.00;;;30.00;99.90;;;;;;4985391;28;20632;-78
2022/12/26 02:16:46;;;;;;;3.78;1.10;;;30.00;99.90;;;;;;4993314;28;20214;-79
2022/12/26 02:19:31;;;;;;;3.47;1.15;;;30.10;99.90;;;;;;4993384;28;20215;-80
2022/12/26 02:22:33;;;;;;;3.28;1.02;;;30.20;99.90;;;;;;4996009;28;20287;-79
2022/12/26 02:25:50;;;;;;;4.40;1.25;;;30.20;99.90;;;;;;4990364;28;20730;-84
2022/12/26 02:28:58;;;;;;;2.10;0.90;;;29.90;99.90;;;;;;4995715;28;20346;-82
2022/12/26 02:31:37;;;;;;;1.85;1.02;;;29.70;99.90;;;;;;4981245;28;20202;-79
2022/12/26 02:34:13;;;;;;;2.10;0.80;;;29.50;99.90;;;;;;4977529;28;20200;-80
2022/12/26 02:37:03;;;;;;;2.85;0.88;;;29.80;99.90;;;;;;4995455;28;20278;-83
2022/12/26 02:40:02;;;;;;;3.42;1.08;;;30.00;99.90;;;;;;4996574;28;20226;-79
2022/12/26 02:42:44;;;;;;;3.88;1.00;;;30.20;99.90;;;;;;4994197;28;20290;-76
2022/12/26 02:48:18;;;;;;;2.60;0.90;;;30.30;99.90;;;;;;4993594;28;20250;-86
2022/12/26 03:13:50;;;;;;;2.90;0.98;;;30.20;99.90;;;;;;4995403;28;20270;-79
2022/12/26 03:19:12;;;;;;;3.97;1.10;;;30.20;99.90;;;;;;4995349;28;20219;-77
2022/12/26 03:21:48;;;;;;;5.75;0.98;;;30.20;99.90;;;;;;4988681;28;20221;-78
2022/12/26 03:24:20;;;;;;;3.33;0.93;;;30.10;99.90;;;;;;4993988;28;20199;-79
2022/12/26 03:26:53;;;;;;;4.25;1.25;;;29.90;99.90;;;;;;4992960;28;20202;-75
2022/12/26 03:32:14;;;;;;;3.75;0.90;;;29.80;99.90;;;;;;4980289;28;20417;-77
2022/12/26 03:34:46;;;;;;;1.25;0.60;;;29.90;99.90;;;;;;4993833;28;20671;-79
2022/12/26 03:37:39;;;;;;;2.53;0.85;;;29.70;99.90;;;;;;4984426;28;20282;-75
2022/12/26 04:20:42;;;;;;;4.63;1.15;;;29.00;99.90;;;;;;4994945;28;20267;-75
2022/12/26 04:46:06;;;;;;;4.05;0.90;;;28.80;99.90;;;;;;4987098;28;20198;-79
2022/12/26 04:51:31;;;;;;;3.45;0.90;;;28.90;99.90;;;;;;4984843;28;20203;-79
2022/12/26 04:54:02;;;;;;;4.72;0.80;;;28.90;99.90;;;;;;4984660;28;20659;-79
2022/12/26 04:56:33;;;;;;;5.45;0.85;;;28.90;99.90;;;;;;4990100;28;20199;-81
2022/12/26 04:59:04;;;;;;;3.28;0.80;;;28.90;99.90;;;;;;4991628;28;20226;-81
2022/12/26 05:10:04;;;;;;;3.78;0.60;;;28.80;99.90;;;;;;4992852;28;20610;-77
2022/12/26 05:12:38;;;;;;;4.07;1.00;;;28.60;99.90;;;;;;4993486;28;20769;-79
2022/12/26 05:15:10;;;;;;;2.47;0.68;;;28.60;99.90;;;;;;4994119;28;20704;-78
2022/12/26 05:29:06;;;;;;;2.05;0.60;;;28.20;99.90;;;;;;4991696;28;20206;-79
2022/12/26 05:31:37;;;;;;;5.32;0.80;;;28.20;99.90;;;;;;4993704;28;20202;-77
2022/12/26 05:34:10;;;;;;;4.85;0.90;;;28.30;99.90;;;;;;4993703;28;20274;-79
2022/12/26 05:36:45;;;;;;;2.45;0.93;;;28.20;99.90;;;;;;4993959;28;20307;-78
2022/12/26 05:39:17;;;;;;;3.28;0.73;;;28.20;99.90;;;;;;4993272;28;20215;-76
2022/12/26 05:41:48;;;;;;;3.88;1.17;;;28.20;99.90;;;;;;4990672;28;20627;-79
2022/12/26 05:44:19;;;;;;;3.28;0.70;;;28.10;99.90;;;;;;4993131;28;20544;-81
2022/12/26 05:46:50;;;;;;;2.33;0.80;;;28.10;99.90;;;;;;4992083;28;20210;-81
2022/12/26 05:49:23;;;;;;;3.50;1.10;;;27.90;99.90;;;;;;4973683;28;20192;-80
2022/12/26 05:51:54;;;;;;;4.60;1.00;;;28.00;99.90;;;;;;4973742;28;20193;-77
2022/12/26 05:54:25;;;;;;;4.38;0.73;;;28.10;99.90;;;;;;4975975;28;20327;-86
2022/12/26 05:56:57;;;;;;;3.97;0.75;;;28.10;99.90;;;;;;4977846;28;20198;-80
2022/12/26 05:59:27;;;;;;;3.05;0.60;;;28.10;99.90;;;;;;4977569;28;20216;-82
2022/12/26 06:01:58;;;;;;;2.83;0.77;;;28.00;99.90;;;;;;4977748;28;20666;-80
2022/12/26 06:04:32;;;;;;;2.65;0.70;;;28.10;99.90;;;;;;4977165;28;20203;-82
2022/12/26 06:07:06;;;;;;;2.45;0.75;;;28.00;99.90;;;;;;4977733;28;20224;-87
2022/12/26 06:09:37;;;;;;;1.98;0.60;;;28.00;99.90;;;;;;4976779;28;20200;-82
2022/12/26 06:12:11;;;;;;;3.60;1.02;;;27.80;99.90;;;;;;4977343;28;20218;-81
2022/12/26 06:14:42;;;;;;;3.58;0.77;;;27.80;99.90;;;;;;4977230;28;20206;-82
2022/12/26 06:17:13;;;;;;;3.35;1.02;;;27.80;99.90;;;;;;4967031;28;20291;-85
2022/12/26 06:19:49;;;;;;;3.35;0.80;;;27.70;99.90;;;;;;4974317;28;20219;-84
2022/12/26 06:22:20;;;;;;;4.70;0.90;;;27.70;99.90;;;;;;4960783;28;20192;-82
2022/12/26 06:24:50;;;;;;;3.28;0.77;;;27.70;99.90;;;;;;4977065;28;20214;-83
2022/12/26 06:27:21;;;;;;;3.58;0.75;;;27.60;99.90;;;;;;4977287;28;20206;-87
2022/12/26 06:29:52;;;;;;;3.05;0.80;;;27.50;99.90;;;;;;4977038;28;20639;-80
2022/12/26 06:32:23;;;;;;;2.92;0.73;;;27.50;99.90;;;;;;4977048;28;20281;-76
2022/12/26 06:34:55;;;;;;;1.33;0.63;;;27.50;99.90;;;;;;4977081;28;20251;-77
2022/12/26 06:37:27;;;;;;;4.07;1.00;;;27.50;99.90;;;;;;4959330;28;20228;-77
2022/12/26 06:39:58;;;;;;;3.38;0.95;;;27.50;99.90;;;;;;4976818;28;20625;-77
2022/12/26 06:42:29;;;;;;;4.50;0.80;;;27.40;99.90;;;;;;4977104;28;20232;-78
2022/12/26 06:45:00;;;;;;;4.10;0.75;;;27.40;99.90;;;;;;4976812;28;20193;-79
2022/12/26 06:47:31;;;;;;;3.60;0.80;;;27.30;99.90;;;;;;4981940;28;20310;-76
2022/12/26 06:50:04;;;;;;;4.55;0.80;;;27.30;99.90;;;;;;4984484;28;20199;-77
2022/12/26 06:52:35;;;;;;;5.45;0.98;;;27.30;99.90;;;;;;4987680;28;20275;-81
2022/12/26 06:55:06;;;;;;;3.70;1.25;;;27.30;99.90;;;;;;4984133;28;20235;-77
2022/12/26 06:57:37;;;;;;;2.38;0.90;;;27.20;99.90;;;;;;4986663;28;20194;-76
2022/12/26 07:00:09;;;;;;;3.17;0.90;;;27.20;99.90;;;;;;4984528;28;20212;-79
2022/12/26 07:02:40;;;;;;;3.63;1.02;;;27.30;99.90;;;;;;4984972;28;20220;-79
2022/12/26 07:05:12;;;;;;;5.30;1.00;;;27.30;99.90;;;;;;4969092;28;20562;-76
2022/12/26 07:07:43;;;;;;;2.40;0.70;;;27.20;99.90;;;;;;4979836;28;20275;-85
2022/12/26 07:10:14;;;;;;;3.47;0.63;;;27.00;99.90;;;;;;4985662;28;20192;-78
2022/12/26 07:12:45;;;;;;;3.95;0.98;;;27.00;99.90;;;;;;4988775;28;20254;-82
2022/12/26 07:15:16;;;;;;;5.10;0.93;;;26.80;99.90;;;;;;4984298;28;20199;-74
2022/12/26 07:17:47;;;;;;;3.75;1.15;;;26.80;99.90;;;;;;4987297;28;20194;-76
2022/12/26 07:20:20;;;;;;;3.40;1.00;;;26.80;99.90;;;;;;4985201;28;20227;-81
2022/12/26 07:22:51;;;;;;;3.13;1.02;;;26.80;99.90;;;;;;4984914;28;20193;-76
2022/12/26 07:25:21;;;;;;;5.93;0.93;;;26.80;99.90;;;;;;4983681;28;20223;-75
2022/12/26 07:27:57;;;;;;;5.07;0.90;;;26.80;99.90;;;;;;4981193;28;20707;-78
2022/12/26 07:30:28;;;;;;;5.10;1.08;;;26.80;99.90;;;;;;4985505;28;20220;-75
2022/12/26 07:32:59;;;;;;;3.47;0.90;;;26.80;99.90;;;;;;4986569;28;20559;-76
2022/12/26 07:35:32;;;;;;;4.22;1.10;;;26.70;99.90;;;;;;4987266;28;20283;-76
2022/12/26 07:38:02;;;;;;;3.47;0.80;;;26.60;99.90;;;;;;4983731;28;20695;-76
2022/12/26 07:40:33;;;;;;;2.53;0.75;;;26.60;99.90;;;;;;4987315;28;20216;-77
2022/12/26 07:43:04;;;;;;;4.13;0.80;;;26.50;99.90;;;;;;4980821;28;20275;-75
2022/12/26 07:45:35;;;;;;;2.88;0.98;;;26.50;99.90;;;;;;4979808;28;20192;-75
2022/12/26 07:48:06;;;;;;;1.55;0.73;;;26.40;99.90;;;;;;4991860;28;20231;-73
2022/12/26 07:50:38;;;;;;;6.15;1.20;;;26.40;99.90;;;;;;4988045;28;20635;-75
2022/12/26 07:53:09;;;;;;;4.85;1.00;;;26.20;99.90;;;;;;4993288;28;20192;-77
2022/12/26 07:55:40;;;;;;;3.92;1.20;;;26.20;99.90;;;;;;4991563;28;20202;-76
2022/12/26 07:58:11;;;;;;;4.05;0.80;;;26.20;99.90;;;;;;4990301;28;20192;-75
2022/12/26 08:00:41;;;;;;;5.38;0.90;;;26.20;99.90;;;;;;4991142;28;20702;-77
2022/12/26 08:03:12;;;;;;;3.65;0.70;;;26.10;99.90;;;;;;4986468;28;20656;-78
2022/12/26 08:05:47;;;;;;;3.20;0.80;;;26.10;99.90;;;;;;4986960;28;20283;-81
2022/12/26 08:08:19;;;;;;;2.30;0.70;;;26.10;99.90;;;;;;4986350;28;20281;-76
2022/12/26 08:10:49;;;;;;;3.05;0.77;;;26.00;99.90;;;;;;4988487;28;20253;-76
2022/12/26 08:13:20;;;;;;;4.93;1.00;;;25.90;99.90;;;;;;4984833;28;20192;-75
2022/12/26 08:15:51;;;;;;;2.80;1.00;;;25.90;99.90;;;;;;4985914;28;20222;-76
2022/12/26 08:18:22;;;;;;;3.65;0.93;;;25.80;99.90;;;;;;4990591;28;20204;-75
2022/12/26 08:20:55;;;;;;;2.72;0.90;;;25.70;99.90;;;;;;4991905;28;20262;-77
2022/12/26 08:23:26;;;;;;;2.50;0.70;;;25.70;99.90;;;;;;4991865;28;20208;-75
2022/12/26 08:25:56;;;;;;;1.67;0.80;;;25.70;99.90;;;;;;4988457;28;20192;-77
2022/12/26 08:28:27;;;;;;;2.67;0.77;;;25.60;99.90;;;;;;4988959;28;20202;-75
2022/12/26 08:30:58;;;;;;;3.45;0.93;;;25.60;99.90;;;;;;4988062;28;20200;-78
2022/12/26 08:33:29;;;;;;;4.65;1.05;;;25.50;99.90;;;;;;4985367;28;20250;-75
2022/12/26 08:36:04;;;;;;;3.47;0.95;;;25.40;99.90;;;;;;4992339;28;20286;-75
2022/12/26 08:38:35;;;;;;;3.97;0.90;;;25.20;99.90;;;;;;4993348;28;20223;-73
2022/12/26 08:41:06;;;;;;;4.60;1.10;;;25.20;99.90;;;;;;4991743;28;20229;-75
2022/12/26 08:43:37;;;;;;;4.28;0.90;;;25.10;99.90;;;;;;4990927;28;20202;-75
2022/12/26 08:46:09;;;;;;;4.53;1.00;;;25.00;99.90;;;;;;4988955;28;20200;-75
2022/12/26 08:48:43;;;;;;;4.38;1.05;;;25.00;99.90;;;;;;4992616;28;20223;-75
2022/12/26 08:51:17;;;;;;;3.33;0.90;;;24.90;99.90;;;;;;4987416;28;20673;-75
2022/12/26 08:53:49;;;;;;;4.85;0.90;;;24.80;99.90;;;;;;4993307;28;20266;-75
2022/12/26 08:56:21;;;;;;;2.05;0.82;;;24.70;99.90;;;;;;4993636;28;20276;-76
2022/12/26 08:58:52;;;;;;;3.60;0.88;;;24.60;99.90;;;;;;4989326;28;20673;-73
2022/12/26 09:01:25;;;;;;;2.47;0.90;;;24.50;99.90;;;;;;4984258;28;20647;-74
2022/12/26 09:03:56;;;;;;;2.63;1.05;;;24.50;99.90;;;;;;4988938;28;21852;-73
2022/12/26 09:06:30;;;;;;;3.75;0.98;;;24.40;99.90;;;;;;4993723;28;20710;-74
2022/12/26 09:09:02;;;;;;;4.40;1.15;;;24.30;99.90;;;;;;4991688;28;20282;-73
2022/12/26 09:11:34;;;;;;;3.00;0.90;;;24.20;99.90;;;;;;4991593;28;20215;-73
2022/12/26 09:14:06;;;;;;;4.88;1.17;;;24.10;99.90;;;;;;4992614;28;20271;-73
2022/12/26 09:16:38;;;;;;;4.72;0.90;;;24.00;99.90;;;;;;4990105;28;20250;-75
2022/12/26 09:19:11;;;;;;;3.92;0.90;;;24.00;99.90;;;;;;4992272;28;20200;-75
2022/12/26 09:21:43;;;;;;;3.55;1.10;;;23.90;99.90;;;;;;4993563;28;20661;-73
2022/12/26 09:24:16;;;;;;;5.28;1.08;;;23.80;99.90;;;;;;4986908;28;20202;-73
2022/12/26 09:26:47;;;;;;;6.65;1.27;;;23.80;99.90;;;;;;4988913;28;20200;-72
2022/12/26 09:29:17;;;;;;;4.28;1.00;;;23.80;99.90;;;;;;4985666;28;20286;-76
2022/12/26 09:31:48;;;;;;;5.05;1.35;;;23.80;99.90;;;;;;4985592;28;20202;-73
2022/12/26 09:34:19;;;;;;;4.20;0.95;;;23.70;99.90;;;;;;4991466;28;20192;-73
2022/12/26 09:36:52;;;;;;;3.65;1.17;;;23.70;99.90;;;;;;4993156;28;20270;-74
2022/12/26 09:39:23;;;;;;;3.22;0.90;;;23.60;99.90;;;;;;4991814;28;20254;-72
2022/12/26 09:42:06;;;;;;;3.70;0.90;;;23.60;99.90;;;;;;4990936;28;20192;-73
2022/12/26 09:44:54;;;;;;;2.70;1.00;;;23.60;99.90;;;;;;4988544;28;20290;-74
2022/12/26 09:47:34;;;;;;;5.55;1.10;;;23.50;99.90;;;;;;4974193;28;20675;-73
2022/12/26 09:50:12;;;;;;;5.97;1.13;;;23.50;99.90;;;;;;4974299;28;20652;-73
2022/12/26 09:52:50;;;;;;;5.45;1.00;;;23.40;99.90;;;;;;4990928;28;20691;-74
2022/12/26 09:55:41;;;;;;;4.05;1.00;;;23.30;99.90;;;;;;4992641;28;20191;-73
2022/12/26 09:58:20;;;;;;;5.15;1.00;;;23.30;99.90;;;;;;4985889;28;20206;-73
2022/12/26 10:00:56;;;;;;;4.70;1.05;;;23.30;99.90;;;;;;4984888;28;20719;-73
2022/12/26 10:03:28;;;;;;;4.18;1.05;;;23.30;99.90;;;;;;4987787;28;20386;-74
2022/12/26 10:06:08;;;;;;;4.65;1.25;;;23.20;99.90;;;;;;4990627;28;20650;-75
2022/12/26 10:09:10;;;;;;;8.60;1.38;;;23.20;99.90;;;;;;4993706;28;20286;-74
2022/12/26 10:11:55;;;;;;;7.18;1.23;;;23.20;99.90;;;;;;4993019;28;20339;-81
2022/12/26 10:14:32;;;;;;;4.35;1.10;;;23.10;99.90;;;;;;4985857;28;20203;-77
2022/12/26 10:17:06;;;;;;;5.60;1.35;;;23.10;99.90;;;;;;4985406;28;20283;-77
2022/12/26 10:19:52;;;;;;;6.15;1.65;;;23.10;99.90;;;;;;4981163;28;20274;-79
2022/12/26 10:22:58;;;;;;;6.70;1.13;;;23.10;99.90;;;;;;4992437;28;20204;-75
2022/12/26 10:25:41;;;;;;;6.13;1.20;;;23.10;99.90;;;;;;4990727;28;20192;-86
2022/12/26 10:28:30;;;;;;;5.88;1.17;;;23.00;99.90;;;;;;4991055;28;20210;-83
2022/12/26 10:31:07;;;;;;;6.30;1.50;;;23.00;99.90;;;;;;4978701;28;20200;-85
2022/12/26 10:33:44;;;;;;;5.22;1.40;;;22.90;99.90;;;;;;4990977;28;20238;-85
2022/12/26 10:36:25;;;;;;;6.68;1.40;;;22.90;99.90;;;;;;4989004;28;20196;-85
2022/12/26 10:38:58;;;;;;;4.35;1.05;;;22.90;99.90;;;;;;4991859;28;20199;-78
2022/12/26 10:41:36;;;;;;;3.58;1.00;;;22.90;99.90;;;;;;4993928;28;20627;-75
2022/12/26 10:44:07;;;;;;;8.85;1.33;;;22.80;99.90;;;;;;4995085;28;20199;-76
2022/12/26 10:47:01;;;;;;;5.03;1.02;;;22.90;99.90;;;;;;4992807;28;20192;-80
2022/12/26 10:49:32;;;;;;;5.15;0.98;;;22.80;99.90;;;;;;4984148;28;20196;-75
2022/12/26 10:52:04;;;;;;;5.88;1.30;;;22.80;99.90;;;;;;4994458;28;20200;-78
2022/12/26 10:54:35;;;;;;;4.68;1.00;;;22.70;99.90;;;;;;4993886;28;20230;-79
2022/12/26 10:57:10;;;;;;;4.45;1.08;;;22.70;99.90;;;;;;4995430;28;20671;-84
2022/12/26 10:59:46;;;;;;;4.40;0.90;;;22.70;99.90;;;;;;4993661;28;20190;-82
2022/12/26 11:02:24;;;;;;;7.80;1.40;;;22.70;99.90;;;;;;4994445;28;20601;-81
2022/12/26 11:05:04;;;;;;;4.63;1.20;;;22.60;99.90;;;;;;4994489;28;20206;-78
2022/12/26 11:07:38;;;;;;;6.07;1.15;;;22.60;99.90;;;;;;4995136;28;20191;-83
2022/12/26 11:10:16;;;;;;;5.53;0.88;;;22.60;99.90;;;;;;4995405;28;20204;-83
2022/12/26 11:12:51;;;;;;;5.13;1.23;;;22.60;99.90;;;;;;4994098;28;20223;-83
2022/12/26 11:15:28;;;;;;;7.38;1.10;;;22.60;99.90;;;;;;4993962;28;20769;-80
2022/12/26 11:18:11;;;;;;;6.13;1.10;;;22.50;99.90;;;;;;4994631;28;20626;-80
2022/12/26 11:20:42;;;;;;;6.10;1.20;;;22.50;99.90;;;;;;4992273;28;20219;-87
2022/12/26 11:23:25;;;;;;;6.22;0.90;;;22.50;99.90;;;;;;4994334;28;20198;-80
2022/12/26 11:25:57;;;;;;;6.35;1.10;;;22.40;99.90;;;;;;4994266;28;20200;-76
2022/12/26 11:28:35;;;;;;;6.60;1.40;;;22.40;99.90;;;;;;4996070;28;20262;-82
2022/12/26 11:31:09;;;;;;;6.53;1.15;;;22.40;99.90;;;;;;4993773;28;20203;-75
2022/12/26 11:33:46;;;;;;;6.05;1.20;;;22.40;99.90;;;;;;4993540;28;20209;-78
2022/12/26 11:36:22;;;;;;;6.30;1.10;;;22.40;99.90;;;;;;4994195;28;20199;-76
2022/12/26 11:38:57;;;;;;;6.10;1.40;;;22.40;99.90;;;;;;4977373;28;20222;-81
2022/12/26 11:41:42;;;;;;;6.28;1.20;;;22.30;99.90;;;;;;4991236;28;20306;-81
2022/12/26 11:44:22;;;;;;;6.47;1.35;;;22.30;99.90;;;;;;4985877;28;20196;-87
2022/12/26 11:46:56;;;;;;;5.07;1.13;;;22.30;99.90;;;;;;4995631;28;20664;-75
2022/12/26 11:49:32;;;;;;;6.82;1.30;;;22.30;99.90;;;;;;4995479;28;20639;-76
2022/12/26 11:52:05;;;;;;;6.22;1.00;;;22.30;99.90;;;;;;4995137;28;20282;-75
2022/12/26 11:54:38;;;;;;;6.82;1.20;;;22.30;99.90;;;;;;4995502;28;20203;-75
2022/12/26 11:57:29;;;;;;;12.27;1.55;;;22.30;99.90;;;;;;4995465;28;20188;-76
2022/12/26 12:00:18;;;;;;;6.40;1.20;;;22.30;99.90;;;;;;4995014;28;20195;-75
2022/12/26 12:02:49;;;;;;;9.75;1.30;;;22.30;99.90;;;;;;4992002;28;20650;-75
2022/12/26 12:05:38;;;;;;;7.05;1.40;;;22.30;99.90;;;;;;4995200;28;20188;-75
2022/12/26 12:08:38;;;;;;;5.45;1.50;;;22.30;99.90;;;;;;4995317;28;20566;-79
2022/12/26 12:11:26;;;;;;;5.22;1.20;;;22.20;99.90;;;;;;4994735;28;20223;-76
2022/12/26 12:14:21;;;;;;;10.07;1.25;;;22.20;99.90;;;;;;4982801;28;20251;-78
2022/12/26 12:17:03;;;;;;;5.32;1.48;;;22.20;99.90;;;;;;4993158;28;20204;-76
2022/12/26 12:19:57;;;;;;;7.20;1.13;;;22.20;99.90;;;;;;4995484;28;20242;-76
2022/12/26 12:22:59;;;;;;;4.57;1.00;;;22.20;99.90;;;;;;4994708;28;20210;-75
2022/12/26 12:25:47;;;;;;;5.10;1.30;;;22.20;99.90;;;;;;4985801;28;20199;-78
2022/12/26 12:28:39;;;;;;;4.40;1.00;;;22.20;99.90;;;;;;4994230;28;20211;-79
2022/12/26 12:31:19;;;;;;;7.10;0.90;;;22.20;99.90;;;;;;4995020;28;20583;-75
2022/12/26 12:33:58;;;;;;;6.53;1.05;;;22.20;99.90;;;;;;4994738;28;20690;-81
2022/12/26 12:36:36;;;;;;;3.30;0.82;;;22.20;99.90;;;;;;4994763;28;20665;-76
2022/12/26 12:39:16;;;;;;;4.78;1.10;;;22.20;99.90;;;;;;4994880;28;20202;-76
2022/12/26 12:42:04;;;;;;;5.18;1.10;;;22.20;99.90;;;;;;4994553;28;20223;-76
2022/12/26 12:44:50;;;;;;;5.28;1.02;;;22.20;99.90;;;;;;4994367;28;20199;-76
2022/12/26 12:47:27;;;;;;;3.33;0.77;;;22.20;99.90;;;;;;4993456;28;20318;-80
2022/12/26 12:50:08;;;;;;;4.25;1.00;;;22.20;99.90;;;;;;4992756;28;20207;-75
2022/12/26 12:52:46;;;;;;;5.55;1.20;;;22.10;99.90;;;;;;4992476;28;20283;-75
2022/12/26 12:55:39;;;;;;;5.90;1.10;;;22.10;99.90;;;;;;4994887;28;20214;-74
2022/12/26 12:58:22;;;;;;;11.20;1.25;;;22.10;99.90;;;;;;4994083;28;20267;-77
2022/12/26 13:00:56;;;;;;;4.25;1.20;;;22.10;99.90;;;;;;4994344;28;20290;-76
2022/12/26 13:03:32;;;;;;;4.22;1.02;;;22.00;99.90;;;;;;4993041;28;20191;-75
2022/12/26 13:06:11;;;;;;;7.13;1.17;;;22.00;99.90;;;;;;4994405;28;20294;-77
2022/12/26 13:08:45;;;;;;;9.43;1.33;;;22.00;99.90;;;;;;4994277;28;20223;-75
2022/12/26 13:11:22;;;;;;;5.78;1.30;;;22.00;99.90;;;;;;4979674;28;20831;-75
2022/12/26 13:13:58;;;;;;;4.63;1.00;;;22.00;99.90;;;;;;4994085;28;20274;-74
2022/12/26 13:16:31;;;;;;;6.45;1.00;;;21.90;99.90;;;;;;4991188;28;20206;-75
2022/12/26 13:19:05;;;;;;;5.13;0.90;;;21.90;99.90;;;;;;4992439;28;20572;-78
2022/12/26 13:21:41;;;;;;;5.28;1.45;;;21.90;99.90;;;;;;4991131;28;20223;-74
2022/12/26 13:24:26;;;;;;;5.20;1.20;;;21.90;99.90;;;;;;4978557;28;20230;-80
2022/12/26 13:27:02;;;;;;;4.82;1.00;;;21.90;99.90;;;;;;4982575;28;20192;-77
2022/12/26 13:29:38;;;;;;;5.32;1.00;;;21.80;99.90;;;;;;4988289;28;20195;-75
2022/12/26 13:32:23;;;;;;;6.57;1.23;;;21.80;99.90;;;;;;4985485;28;20715;-76
2022/12/26 13:34:55;;;;;;;8.70;1.25;;;21.80;99.90;;;;;;4980043;28;20238;-77
2022/12/26 13:37:57;;;;;;;4.90;1.17;;;21.80;99.90;;;;;;4993591;28;20192;-75
2022/12/26 13:40:32;;;;;;;5.28;1.13;;;21.80;99.90;;;;;;4991884;28;20211;-75
2022/12/26 13:45:58;;;;;;;3.88;0.85;;;21.70;99.90;;;;;;4993499;28;20565;-74
2022/12/26 13:49:06;;;;;;;6.60;1.20;;;21.60;99.90;;;;;;4993748;28;20702;-75
2022/12/26 13:52:01;;;;;;;6.88;1.40;;;21.60;99.90;;;;;;4993630;28;20721;-75
2022/12/26 13:54:33;;;;;;;3.65;1.17;;;21.50;99.90;;;;;;4984762;28;20235;-74
2022/12/26 13:57:25;;;;;;;3.67;1.00;;;21.50;99.90;;;;;;4994084;28;20192;-74
2022/12/26 14:00:20;;;;;;;7.13;1.15;;;21.50;99.90;;;;;;4993625;28;20659;-76
2022/12/26 14:03:25;;;;;;;6.03;1.20;;;21.50;99.90;;;;;;4993660;28;20253;-80
2022/12/26 14:06:32;;;;;;;8.35;1.05;;;21.50;99.90;;;;;;4986828;28;20238;-74
2022/12/26 14:09:29;;;;;;;2.90;1.05;;;21.50;99.90;;;;;;4980584;28;20204;-73
2022/12/26 14:12:30;;;;;;;7.70;1.30;;;21.40;99.90;;;;;;4991642;28;20310;-78
2022/12/26 14:15:37;;;;;;;2.92;1.02;;;21.40;99.90;;;;;;4975946;28;20357;-75
2022/12/26 14:18:25;;;;;;;6.03;1.10;;;21.30;99.90;;;;;;4992966;28;20202;-75
2022/12/26 14:21:14;;;;;;;5.93;1.20;;;21.40;99.90;;;;;;4997250;28;20701;-74
2022/12/26 14:23:51;;;;;;;3.15;1.00;;;21.30;99.90;;;;;;4997485;28;20187;-74
2022/12/26 14:26:34;;;;;;;3.17;1.00;;;21.30;99.90;;;;;;4997238;28;20706;-75
2022/12/26 14:29:18;;;;;;;7.22;1.40;;;21.30;99.90;;;;;;4991945;28;20275;-80
2022/12/26 14:32:02;;;;;;;7.63;1.33;;;21.30;99.90;;;;;;4997117;28;20611;-74
2022/12/26 14:34:48;;;;;;;3.78;1.00;;;21.30;99.90;;;;;;4994471;28;20651;-74
2022/12/26 14:37:25;;;;;;;6.13;1.15;;;21.20;99.90;;;;;;4995542;28;20200;-74
2022/12/26 14:40:21;;;;;;;4.63;0.98;;;21.20;99.90;;;;;;4994704;28;20201;-75
2022/12/26 14:43:31;;;;;;;3.65;1.15;;;21.20;99.90;;;;;;4994203;28;20216;-75
2022/12/26 14:46:05;;;;;;;3.88;1.20;;;21.20;99.90;;;;;;4921191;29;20201;-75
2022/12/26 14:48:56;;;;;;;5.95;1.30;;;21.20;99.90;;;;;;4980701;28;20241;-76
2022/12/26 14:51:44;;;;;;;7.88;1.40;;;21.20;99.90;;;;;;4996513;28;20235;-76
2022/12/26 14:54:48;;;;;;;5.78;1.10;;;21.10;99.90;;;;;;4977665;28;20196;-74
2022/12/26 14:57:53;;;;;;;3.55;1.13;;;21.10;99.90;;;;;;4977244;28;20200;-75
2022/12/26 15:00:35;;;;;;;3.78;1.27;;;21.10;99.90;;;;;;4995492;28;20282;-75
2022/12/26 15:03:29;;;;;;;3.88;0.90;;;21.10;99.90;;;;;;4996531;28;20617;-79
2022/12/26 15:06:29;;;;;;;5.20;1.20;;;21.10;99.90;;;;;;4985113;28;20188;-75
2022/12/26 15:09:15;;;;;;;5.68;1.20;;;21.00;99.90;;;;;;4996499;28;20188;-74
2022/12/26 15:12:17;;;;;;;8.77;1.40;;;21.00;99.90;;;;;;4994024;28;20758;-77
2022/12/26 15:15:19;;;;;;;5.50;1.33;;;21.00;99.90;;;;;;4982041;28;20191;-74
2022/12/26 15:18:02;;;;;;;6.13;1.55;;;21.00;99.90;;;;;;4995185;28;20581;-74
2022/12/26 15:21:11;;;;;;;9.95;1.50;;;21.00;99.90;;;;;;4996544;28;20611;-74
2022/12/26 15:24:07;;;;;;;6.47;1.40;;;20.90;99.90;;;;;;4968328;28;20204;-74
2022/12/26 15:27:18;;;;;;;9.80;1.67;;;20.90;99.90;;;;;;4975531;28;20692;-75
2022/12/26 15:30:17;;;;;;;4.97;1.40;;;20.90;99.90;;;;;;4953721;29;20240;-75
2022/12/26 15:32:56;;;;;;;12.15;1.60;;;20.90;99.90;;;;;;4996032;28;20195;-78
2022/12/26 15:35:34;;;;;;;9.02;1.70;;;20.90;99.90;;;;;;4995818;28;20291;-75
2022/12/26 15:38:27;;;;;;;8.80;1.40;;;20.90;99.90;;;;;;4995936;28;20379;-79
2022/12/26 15:41:15;;;;;;;7.82;1.65;;;20.90;99.90;;;;;;4994655;28;20210;-75
2022/12/26 15:44:02;;;;;;;8.45;1.60;;;20.90;99.90;;;;;;4992240;28;20699;-74